sensor_id;sensor_type;location;lat;lon;timestamp;P1;durP1;ratioP1;P2;durP2;ratioP2
8881;SDS011;4477;48.736;9.176;2023-02-23T00:00:30;19.67;;;16.70;;
8881;SDS011;4477;48.736;9.176;2023-02-23T00:02:59;25.07;;;17.73;;
8881;SDS011;4477;48.736;9.176;2023-02-23T00:05:27;22.07;;;17.17;;
8881;SDS011;4477;48.736;9.176;2023-02-23T00:07:55;23.73;;;17.77;;
8881;SDS011;4477;48.736;9.176;2023-02-23T00:10:23;23.87;;;17.53;;
8881;SDS011;4477;48.736;9.176;2023-02-23T00:12:54;21.70;;;18.53;;
8881;SDS011;4477;48.736;9.176;2023-02-23T00:15:22;24.90;;;18.90;;
8881;SDS011;4477;48.736;9.176;2023-02-23T00:17:51;23.10;;;17.43;;
8881;SDS011;4477;48.736;9.176;2023-02-23T00:20:20;22.23;;;18.10;;
8881;SDS011;4477;48.736;9.176;2023-02-23T00:22:51;23.70;;;18.30;;
8881;SDS011;4477;48.736;9.176;2023-02-23T00:25:18;23.10;;;18.73;;
8881;SDS011;4477;48.736;9.176;2023-02-23T00:27:45;24.67;;;20.00;;
8881;SDS011;4477;48.736;9.176;2023-02-23T00:30:14;25.33;;;21.13;;
8881;SDS011;4477;48.736;9.176;2023-02-23T00:32:42;28.53;;;23.30;;
8881;SDS011;4477;48.736;9.176;2023-02-23T00:35:09;26.23;;;21.67;;
8881;SDS011;4477;48.736;9.176;2023-02-23T00:37:42;30.90;;;23.00;;
8881;SDS011;4477;48.736;9.176;2023-02-23T00:40:10;30.47;;;24.80;;
8881;SDS011;4477;48.736;9.176;2023-02-23T00:42:40;30.80;;;23.00;;
8881;SDS011;4477;48.736;9.176;2023-02-23T00:45:08;29.07;;;22.37;;
8881;SDS011;4477;48.736;9.176;2023-02-23T00:47:36;30.77;;;23.47;;
8881;SDS011;4477;48.736;9.176;2023-02-23T00:50:04;26.63;;;22.57;;
8881;SDS011;4477;48.736;9.176;2023-02-23T00:52:31;31.63;;;24.00;;
8881;SDS011;4477;48.736;9.176;2023-02-23T00:55:03;32.43;;;25.13;;
8881;SDS011;4477;48.736;9.176;2023-02-23T00:57:30;37.00;;;26.97;;
8881;SDS011;4477;48.736;9.176;2023-02-23T00:59:57;34.53;;;26.57;;
8881;SDS011;4477;48.736;9.176;2023-02-23T01:02:25;34.97;;;27.17;;
8881;SDS011;4477;48.736;9.176;2023-02-23T01:04:54;33.60;;;27.03;;
8881;SDS011;4477;48.736;9.176;2023-02-23T01:07:21;34.73;;;28.57;;
8881;SDS011;4477;48.736;9.176;2023-02-23T01:09:49;36.23;;;27.50;;
8881;SDS011;4477;48.736;9.176;2023-02-23T01:12:18;41.33;;;31.93;;
8881;SDS011;4477;48.736;9.176;2023-02-23T01:14:45;41.33;;;32.80;;
8881;SDS011;4477;48.736;9.176;2023-02-23T01:17:12;46.50;;;34.83;;
8881;SDS011;4477;48.736;9.176;2023-02-23T01:19:39;40.60;;;32.07;;
8881;SDS011;4477;48.736;9.176;2023-02-23T01:22:07;47.13;;;36.60;;
8881;SDS011;4477;48.736;9.176;2023-02-23T01:24:34;44.50;;;34.03;;
8881;SDS011;4477;48.736;9.176;2023-02-23T01:27:02;40.63;;;30.97;;
8881;SDS011;4477;48.736;9.176;2023-02-23T01:29:31;41.60;;;31.60;;
8881;SDS011;4477;48.736;9.176;2023-02-23T01:31:58;42.77;;;32.13;;
8881;SDS011;4477;48.736;9.176;2023-02-23T01:34:25;46.03;;;33.27;;
8881;SDS011;4477;48.736;9.176;2023-02-23T01:36:52;46.90;;;34.20;;
8881;SDS011;4477;48.736;9.176;2023-02-23T01:39:20;46.73;;;35.10;;
8881;SDS011;4477;48.736;9.176;2023-02-23T01:41:47;47.50;;;34.23;;
8881;SDS011;4477;48.736;9.176;2023-02-23T01:47:05;52.37;;;39.50;;
8881;SDS011;4477;48.736;9.176;2023-02-23T01:49:32;52.50;;;40.03;;
8881;SDS011;4477;48.736;9.176;2023-02-23T01:52:01;57.40;;;40.20;;
8881;SDS011;4477;48.736;9.176;2023-02-23T01:54:29;53.73;;;38.77;;
8881;SDS011;4477;48.736;9.176;2023-02-23T01:56:57;56.73;;;40.80;;
8881;SDS011;4477;48.736;9.176;2023-02-23T01:59:27;61.77;;;41.60;;
8881;SDS011;4477;48.736;9.176;2023-02-23T02:01:56;56.30;;;41.63;;
8881;SDS011;4477;48.736;9.176;2023-02-23T02:04:25;55.80;;;41.23;;
8881;SDS011;4477;48.736;9.176;2023-02-23T02:06:52;58.00;;;40.13;;
8881;SDS011;4477;48.736;9.176;2023-02-23T02:09:21;57.63;;;40.27;;
8881;SDS011;4477;48.736;9.176;2023-02-23T02:11:51;60.27;;;41.93;;
8881;SDS011;4477;48.736;9.176;2023-02-23T02:14:19;54.67;;;39.83;;
8881;SDS011;4477;48.736;9.176;2023-02-23T02:22:30;62.27;;;43.17;;
8881;SDS011;4477;48.736;9.176;2023-02-23T02:25:17;64.37;;;43.70;;
8881;SDS011;4477;48.736;9.176;2023-02-23T02:27:54;60.30;;;42.03;;
8881;SDS011;4477;48.736;9.176;2023-02-23T02:30:30;59.80;;;43.20;;
8881;SDS011;4477;48.736;9.176;2023-02-23T02:33:06;56.97;;;40.87;;
8881;SDS011;4477;48.736;9.176;2023-02-23T02:35:46;62.67;;;42.13;;
8881;SDS011;4477;48.736;9.176;2023-02-23T02:38:31;67.97;;;43.37;;
8881;SDS011;4477;48.736;9.176;2023-02-23T02:41:00;53.83;;;37.97;;
8881;SDS011;4477;48.736;9.176;2023-02-23T02:43:32;50.40;;;35.40;;
8881;SDS011;4477;48.736;9.176;2023-02-23T02:46:05;43.70;;;30.90;;
8881;SDS011;4477;48.736;9.176;2023-02-23T02:48:36;45.27;;;33.20;;
8881;SDS011;4477;48.736;9.176;2023-02-23T02:51:07;44.60;;;32.13;;
8881;SDS011;4477;48.736;9.176;2023-02-23T02:53:44;47.10;;;32.20;;
8881;SDS011;4477;48.736;9.176;2023-02-23T02:56:12;46.30;;;32.27;;
8881;SDS011;4477;48.736;9.176;2023-02-23T02:58:43;45.27;;;32.30;;
8881;SDS011;4477;48.736;9.176;2023-02-23T03:01:11;44.70;;;31.97;;
8881;SDS011;4477;48.736;9.176;2023-02-23T03:03:56;49.83;;;33.87;;
8881;SDS011;4477;48.736;9.176;2023-02-23T03:06:44;57.33;;;36.90;;
8881;SDS011;4477;48.736;9.176;2023-02-23T03:09:32;49.50;;;35.00;;
8881;SDS011;4477;48.736;9.176;2023-02-23T03:12:22;46.20;;;32.30;;
8881;SDS011;4477;48.736;9.176;2023-02-23T03:15:12;46.77;;;33.30;;
8881;SDS011;4477;48.736;9.176;2023-02-23T03:18:03;44.57;;;32.43;;
8881;SDS011;4477;48.736;9.176;2023-02-23T03:20:53;44.30;;;33.53;;
8881;SDS011;4477;48.736;9.176;2023-02-23T03:23:42;49.87;;;36.60;;
8881;SDS011;4477;48.736;9.176;2023-02-23T03:26:34;47.43;;;34.70;;
8881;SDS011;4477;48.736;9.176;2023-02-23T03:29:21;44.23;;;32.03;;
8881;SDS011;4477;48.736;9.176;2023-02-23T03:32:09;38.57;;;28.83;;
8881;SDS011;4477;48.736;9.176;2023-02-23T03:34:58;40.97;;;29.33;;
8881;SDS011;4477;48.736;9.176;2023-02-23T03:37:47;39.80;;;30.57;;
8881;SDS011;4477;48.736;9.176;2023-02-23T03:40:36;40.20;;;29.40;;
8881;SDS011;4477;48.736;9.176;2023-02-23T03:43:23;39.33;;;29.40;;
8881;SDS011;4477;48.736;9.176;2023-02-23T03:46:09;38.83;;;28.80;;
8881;SDS011;4477;48.736;9.176;2023-02-23T03:48:56;40.20;;;29.37;;
8881;SDS011;4477;48.736;9.176;2023-02-23T03:51:41;36.83;;;28.77;;
8881;SDS011;4477;48.736;9.176;2023-02-23T03:54:30;42.90;;;31.80;;
8881;SDS011;4477;48.736;9.176;2023-02-23T03:57:17;50.07;;;32.70;;
8881;SDS011;4477;48.736;9.176;2023-02-23T04:00:06;40.83;;;29.83;;
8881;SDS011;4477;48.736;9.176;2023-02-23T04:02:53;39.33;;;30.33;;
8881;SDS011;4477;48.736;9.176;2023-02-23T04:05:38;50.93;;;35.40;;
8881;SDS011;4477;48.736;9.176;2023-02-23T04:08:26;52.70;;;35.60;;
8881;SDS011;4477;48.736;9.176;2023-02-23T04:11:13;49.87;;;35.63;;
8881;SDS011;4477;48.736;9.176;2023-02-23T04:13:59;48.17;;;33.70;;
8881;SDS011;4477;48.736;9.176;2023-02-23T04:16:28;44.67;;;32.77;;
8881;SDS011;4477;48.736;9.176;2023-02-23T04:18:55;49.67;;;33.53;;
8881;SDS011;4477;48.736;9.176;2023-02-23T04:21:22;45.17;;;31.97;;
8881;SDS011;4477;48.736;9.176;2023-02-23T04:23:49;47.03;;;34.10;;
8881;SDS011;4477;48.736;9.176;2023-02-23T04:26:16;47.33;;;34.10;;
8881;SDS011;4477;48.736;9.176;2023-02-23T04:28:43;46.47;;;33.57;;
8881;SDS011;4477;48.736;9.176;2023-02-23T04:31:10;51.13;;;35.00;;
8881;SDS011;4477;48.736;9.176;2023-02-23T04:33:39;44.97;;;31.80;;
8881;SDS011;4477;48.736;9.176;2023-02-23T04:36:06;46.57;;;34.97;;
8881;SDS011;4477;48.736;9.176;2023-02-23T04:38:33;40.47;;;30.80;;
8881;SDS011;4477;48.736;9.176;2023-02-23T04:41:00;48.77;;;34.67;;
8881;SDS011;4477;48.736;9.176;2023-02-23T04:43:27;45.43;;;33.60;;
8881;SDS011;4477;48.736;9.176;2023-02-23T04:45:55;52.80;;;35.90;;
8881;SDS011;4477;48.736;9.176;2023-02-23T04:48:22;50.70;;;35.70;;
8881;SDS011;4477;48.736;9.176;2023-02-23T04:50:52;41.03;;;29.73;;
8881;SDS011;4477;48.736;9.176;2023-02-23T04:53:19;42.57;;;30.30;;
8881;SDS011;4477;48.736;9.176;2023-02-23T04:55:46;45.73;;;31.33;;
8881;SDS011;4477;48.736;9.176;2023-02-23T04:58:13;41.87;;;30.70;;
8881;SDS011;4477;48.736;9.176;2023-02-23T05:00:40;42.17;;;31.17;;
8881;SDS011;4477;48.736;9.176;2023-02-23T05:03:08;44.30;;;32.07;;
8881;SDS011;4477;48.736;9.176;2023-02-23T05:05:36;46.63;;;32.63;;
8881;SDS011;4477;48.736;9.176;2023-02-23T05:08:05;41.93;;;30.57;;
8881;SDS011;4477;48.736;9.176;2023-02-23T05:10:32;48.90;;;32.80;;
8881;SDS011;4477;48.736;9.176;2023-02-23T05:13:01;45.50;;;32.13;;
8881;SDS011;4477;48.736;9.176;2023-02-23T05:15:28;42.83;;;31.37;;
8881;SDS011;4477;48.736;9.176;2023-02-23T05:17:56;34.90;;;26.60;;
8881;SDS011;4477;48.736;9.176;2023-02-23T05:20:23;43.70;;;31.13;;
8881;SDS011;4477;48.736;9.176;2023-02-23T05:22:50;31.63;;;25.10;;
8881;SDS011;4477;48.736;9.176;2023-02-23T05:25:19;33.73;;;23.93;;
8881;SDS011;4477;48.736;9.176;2023-02-23T05:27:46;35.37;;;24.70;;
8881;SDS011;4477;48.736;9.176;2023-02-23T05:30:13;34.03;;;24.73;;
8881;SDS011;4477;48.736;9.176;2023-02-23T05:32:40;32.20;;;24.57;;
8881;SDS011;4477;48.736;9.176;2023-02-23T05:35:08;32.90;;;24.60;;
8881;SDS011;4477;48.736;9.176;2023-02-23T05:37:36;36.03;;;26.70;;
8881;SDS011;4477;48.736;9.176;2023-02-23T05:40:04;39.57;;;25.80;;
8881;SDS011;4477;48.736;9.176;2023-02-23T05:42:32;36.70;;;26.03;;
8881;SDS011;4477;48.736;9.176;2023-02-23T05:44:59;44.80;;;31.17;;
8881;SDS011;4477;48.736;9.176;2023-02-23T05:47:29;50.93;;;35.40;;
8881;SDS011;4477;48.736;9.176;2023-02-23T05:49:56;50.30;;;35.03;;
8881;SDS011;4477;48.736;9.176;2023-02-23T05:52:23;49.67;;;35.17;;
8881;SDS011;4477;48.736;9.176;2023-02-23T05:54:51;47.90;;;34.40;;
8881;SDS011;4477;48.736;9.176;2023-02-23T05:57:18;49.63;;;36.17;;
8881;SDS011;4477;48.736;9.176;2023-02-23T05:59:46;55.20;;;34.30;;
8881;SDS011;4477;48.736;9.176;2023-02-23T06:02:13;56.43;;;37.47;;
8881;SDS011;4477;48.736;9.176;2023-02-23T06:04:40;52.73;;;35.93;;
8881;SDS011;4477;48.736;9.176;2023-02-23T06:07:07;59.17;;;37.63;;
8881;SDS011;4477;48.736;9.176;2023-02-23T06:09:35;53.63;;;36.10;;
8881;SDS011;4477;48.736;9.176;2023-02-23T06:12:02;49.93;;;35.47;;
8881;SDS011;4477;48.736;9.176;2023-02-23T06:14:30;54.60;;;35.37;;
8881;SDS011;4477;48.736;9.176;2023-02-23T06:16:58;48.17;;;34.33;;
8881;SDS011;4477;48.736;9.176;2023-02-23T06:19:25;57.27;;;35.87;;
8881;SDS011;4477;48.736;9.176;2023-02-23T06:21:53;51.00;;;35.73;;
8881;SDS011;4477;48.736;9.176;2023-02-23T06:24:20;54.13;;;39.27;;
8881;SDS011;4477;48.736;9.176;2023-02-23T06:26:48;53.93;;;37.73;;
8881;SDS011;4477;48.736;9.176;2023-02-23T06:29:15;57.20;;;37.53;;
8881;SDS011;4477;48.736;9.176;2023-02-23T06:31:42;55.97;;;38.07;;
8881;SDS011;4477;48.736;9.176;2023-02-23T06:34:10;55.47;;;38.77;;
8881;SDS011;4477;48.736;9.176;2023-02-23T06:36:38;59.70;;;37.87;;
8881;SDS011;4477;48.736;9.176;2023-02-23T06:39:05;54.83;;;38.47;;
8881;SDS011;4477;48.736;9.176;2023-02-23T06:41:32;52.10;;;36.77;;
8881;SDS011;4477;48.736;9.176;2023-02-23T06:43:59;51.73;;;37.53;;
8881;SDS011;4477;48.736;9.176;2023-02-23T06:46:26;59.40;;;40.93;;
8881;SDS011;4477;48.736;9.176;2023-02-23T06:48:54;55.23;;;40.40;;
8881;SDS011;4477;48.736;9.176;2023-02-23T06:51:22;57.07;;;39.30;;
8881;SDS011;4477;48.736;9.176;2023-02-23T06:53:49;47.70;;;36.50;;
8881;SDS011;4477;48.736;9.176;2023-02-23T06:56:17;73.00;;;52.10;;
8881;SDS011;4477;48.736;9.176;2023-02-23T06:58:44;48.47;;;34.40;;
8881;SDS011;4477;48.736;9.176;2023-02-23T07:01:12;54.87;;;41.13;;
8881;SDS011;4477;48.736;9.176;2023-02-23T07:03:39;52.43;;;38.40;;
8881;SDS011;4477;48.736;9.176;2023-02-23T07:06:06;53.87;;;39.90;;
8881;SDS011;4477;48.736;9.176;2023-02-23T07:08:35;51.03;;;37.47;;
8881;SDS011;4477;48.736;9.176;2023-02-23T07:11:06;48.17;;;34.73;;
8881;SDS011;4477;48.736;9.176;2023-02-23T07:13:33;51.57;;;38.07;;
8881;SDS011;4477;48.736;9.176;2023-02-23T07:16:01;50.63;;;36.97;;
8881;SDS011;4477;48.736;9.176;2023-02-23T07:18:28;50.20;;;37.67;;
8881;SDS011;4477;48.736;9.176;2023-02-23T07:20:55;49.17;;;34.70;;
8881;SDS011;4477;48.736;9.176;2023-02-23T07:23:22;42.90;;;31.03;;
8881;SDS011;4477;48.736;9.176;2023-02-23T07:25:51;46.13;;;32.20;;
8881;SDS011;4477;48.736;9.176;2023-02-23T07:28:19;46.33;;;32.03;;
8881;SDS011;4477;48.736;9.176;2023-02-23T07:30:46;30.50;;;25.60;;
8881;SDS011;4477;48.736;9.176;2023-02-23T07:33:13;33.27;;;24.30;;
8881;SDS011;4477;48.736;9.176;2023-02-23T07:35:41;30.93;;;24.13;;
8881;SDS011;4477;48.736;9.176;2023-02-23T07:38:09;29.67;;;22.77;;
8881;SDS011;4477;48.736;9.176;2023-02-23T07:40:36;26.63;;;20.00;;
8881;SDS011;4477;48.736;9.176;2023-02-23T07:43:05;30.77;;;20.77;;
8881;SDS011;4477;48.736;9.176;2023-02-23T07:45:32;24.83;;;19.60;;
8881;SDS011;4477;48.736;9.176;2023-02-23T07:47:59;25.13;;;18.13;;
8881;SDS011;4477;48.736;9.176;2023-02-23T07:50:27;22.73;;;17.87;;
8881;SDS011;4477;48.736;9.176;2023-02-23T07:52:54;24.53;;;18.37;;
8881;SDS011;4477;48.736;9.176;2023-02-23T07:55:21;20.07;;;17.10;;
8881;SDS011;4477;48.736;9.176;2023-02-23T07:57:48;21.33;;;16.77;;
8881;SDS011;4477;48.736;9.176;2023-02-23T08:00:17;20.80;;;16.43;;
8881;SDS011;4477;48.736;9.176;2023-02-23T08:02:44;18.30;;;15.20;;
8881;SDS011;4477;48.736;9.176;2023-02-23T08:05:11;19.13;;;15.23;;
8881;SDS011;4477;48.736;9.176;2023-02-23T08:07:38;21.13;;;14.47;;
8881;SDS011;4477;48.736;9.176;2023-02-23T08:10:06;22.37;;;14.03;;
8881;SDS011;4477;48.736;9.176;2023-02-23T08:12:33;19.50;;;14.23;;
8881;SDS011;4477;48.736;9.176;2023-02-23T08:15:00;21.87;;;14.47;;
8881;SDS011;4477;48.736;9.176;2023-02-23T08:17:33;17.40;;;12.83;;
8881;SDS011;4477;48.736;9.176;2023-02-23T08:20:00;18.60;;;13.23;;
8881;SDS011;4477;48.736;9.176;2023-02-23T08:22:28;17.90;;;13.07;;
8881;SDS011;4477;48.736;9.176;2023-02-23T08:24:55;20.63;;;12.83;;
8881;SDS011;4477;48.736;9.176;2023-02-23T08:27:22;22.73;;;12.93;;
8881;SDS011;4477;48.736;9.176;2023-02-23T08:29:49;22.43;;;12.60;;
8881;SDS011;4477;48.736;9.176;2023-02-23T08:32:16;29.23;;;12.50;;
8881;SDS011;4477;48.736;9.176;2023-02-23T08:34:45;17.40;;;11.70;;
8881;SDS011;4477;48.736;9.176;2023-02-23T08:37:12;17.47;;;10.10;;
8881;SDS011;4477;48.736;9.176;2023-02-23T08:39:39;15.17;;;10.47;;
8881;SDS011;4477;48.736;9.176;2023-02-23T08:42:07;17.57;;;10.73;;
8881;SDS011;4477;48.736;9.176;2023-02-23T08:44:34;16.70;;;9.93;;
8881;SDS011;4477;48.736;9.176;2023-02-23T08:47:01;15.77;;;9.37;;
8881;SDS011;4477;48.736;9.176;2023-02-23T08:49:29;11.57;;;8.40;;
8881;SDS011;4477;48.736;9.176;2023-02-23T08:51:58;13.40;;;9.07;;
8881;SDS011;4477;48.736;9.176;2023-02-23T08:54:26;12.17;;;8.77;;
8881;SDS011;4477;48.736;9.176;2023-02-23T08:56:54;12.17;;;8.07;;
8881;SDS011;4477;48.736;9.176;2023-02-23T08:59:21;12.03;;;8.40;;
8881;SDS011;4477;48.736;9.176;2023-02-23T09:01:49;12.67;;;8.53;;
8881;SDS011;4477;48.736;9.176;2023-02-23T09:04:16;12.53;;;8.70;;
8881;SDS011;4477;48.736;9.176;2023-02-23T09:06:44;14.60;;;8.67;;
8881;SDS011;4477;48.736;9.176;2023-02-23T09:09:14;12.40;;;8.47;;
8881;SDS011;4477;48.736;9.176;2023-02-23T09:11:42;20.10;;;8.77;;
8881;SDS011;4477;48.736;9.176;2023-02-23T09:14:09;17.97;;;8.67;;
8881;SDS011;4477;48.736;9.176;2023-02-23T09:16:36;13.67;;;7.30;;
8881;SDS011;4477;48.736;9.176;2023-02-23T09:19:03;11.07;;;7.97;;
8881;SDS011;4477;48.736;9.176;2023-02-23T09:21:30;12.93;;;7.80;;
8881;SDS011;4477;48.736;9.176;2023-02-23T09:23:58;13.63;;;8.47;;
8881;SDS011;4477;48.736;9.176;2023-02-23T09:26:27;11.97;;;8.00;;
8881;SDS011;4477;48.736;9.176;2023-02-23T09:28:56;9.73;;;7.23;;
8881;SDS011;4477;48.736;9.176;2023-02-23T09:31:24;10.30;;;7.13;;
8881;SDS011;4477;48.736;9.176;2023-02-23T09:33:51;16.20;;;7.60;;
8881;SDS011;4477;48.736;9.176;2023-02-23T09:36:19;13.20;;;7.63;;
8881;SDS011;4477;48.736;9.176;2023-02-23T09:38:47;10.97;;;7.07;;
8881;SDS011;4477;48.736;9.176;2023-02-23T09:41:33;10.70;;;6.87;;
8881;SDS011;4477;48.736;9.176;2023-02-23T09:44:05;11.43;;;7.60;;
8881;SDS011;4477;48.736;9.176;2023-02-23T09:46:38;11.57;;;7.33;;
8881;SDS011;4477;48.736;9.176;2023-02-23T09:49:09;10.77;;;7.00;;
8881;SDS011;4477;48.736;9.176;2023-02-23T09:51:39;9.43;;;6.93;;
8881;SDS011;4477;48.736;9.176;2023-02-23T09:54:08;9.73;;;7.40;;
8881;SDS011;4477;48.736;9.176;2023-02-23T09:56:37;12.23;;;7.30;;
8881;SDS011;4477;48.736;9.176;2023-02-23T09:59:09;10.50;;;7.20;;
8881;SDS011;4477;48.736;9.176;2023-02-23T10:01:42;12.20;;;7.03;;
8881;SDS011;4477;48.736;9.176;2023-02-23T10:04:17;11.57;;;7.07;;
8881;SDS011;4477;48.736;9.176;2023-02-23T10:06:47;12.47;;;7.27;;
8881;SDS011;4477;48.736;9.176;2023-02-23T10:09:17;11.23;;;7.43;;
8881;SDS011;4477;48.736;9.176;2023-02-23T10:11:50;8.60;;;6.87;;
8881;SDS011;4477;48.736;9.176;2023-02-23T10:14:26;9.57;;;6.00;;
8881;SDS011;4477;48.736;9.176;2023-02-23T10:17:08;7.40;;;5.93;;
8881;SDS011;4477;48.736;9.176;2023-02-23T10:19:43;10.40;;;5.80;;
8881;SDS011;4477;48.736;9.176;2023-02-23T10:22:16;7.83;;;5.23;;
8881;SDS011;4477;48.736;9.176;2023-02-23T10:24:47;7.30;;;4.50;;
8881;SDS011;4477;48.736;9.176;2023-02-23T10:27:20;7.80;;;4.23;;
8881;SDS011;4477;48.736;9.176;2023-02-23T10:29:49;7.87;;;4.47;;
8881;SDS011;4477;48.736;9.176;2023-02-23T10:32:19;5.83;;;4.00;;
8881;SDS011;4477;48.736;9.176;2023-02-23T10:34:52;5.67;;;4.53;;
8881;SDS011;4477;48.736;9.176;2023-02-23T10:37:21;8.03;;;4.37;;
8881;SDS011;4477;48.736;9.176;2023-02-23T10:39:49;6.43;;;4.73;;
8881;SDS011;4477;48.736;9.176;2023-02-23T10:42:17;8.03;;;4.90;;
8881;SDS011;4477;48.736;9.176;2023-02-23T10:44:52;8.23;;;4.97;;
8881;SDS011;4477;48.736;9.176;2023-02-23T10:47:20;11.53;;;5.20;;
8881;SDS011;4477;48.736;9.176;2023-02-23T10:49:50;8.77;;;4.90;;
8881;SDS011;4477;48.736;9.176;2023-02-23T10:52:19;6.43;;;4.70;;
8881;SDS011;4477;48.736;9.176;2023-02-23T10:54:51;12.40;;;5.17;;
8881;SDS011;4477;48.736;9.176;2023-02-23T10:57:21;5.83;;;4.50;;
8881;SDS011;4477;48.736;9.176;2023-02-23T10:59:58;9.90;;;5.63;;
8881;SDS011;4477;48.736;9.176;2023-02-23T11:02:34;10.60;;;4.70;;
8881;SDS011;4477;48.736;9.176;2023-02-23T11:05:01;8.50;;;3.77;;
8881;SDS011;4477;48.736;9.176;2023-02-23T11:07:31;10.57;;;3.87;;
8881;SDS011;4477;48.736;9.176;2023-02-23T11:09:59;9.40;;;4.10;;
8881;SDS011;4477;48.736;9.176;2023-02-23T11:12:50;4.60;;;2.73;;
8881;SDS011;4477;48.736;9.176;2023-02-23T11:15:25;7.20;;;3.00;;
8881;SDS011;4477;48.736;9.176;2023-02-23T11:17:54;6.20;;;3.60;;
8881;SDS011;4477;48.736;9.176;2023-02-23T11:20:24;8.07;;;3.70;;
8881;SDS011;4477;48.736;9.176;2023-02-23T11:22:57;5.83;;;3.13;;
8881;SDS011;4477;48.736;9.176;2023-02-23T11:25:25;7.13;;;3.40;;
8881;SDS011;4477;48.736;9.176;2023-02-23T11:27:56;5.13;;;3.03;;
8881;SDS011;4477;48.736;9.176;2023-02-23T11:30:24;6.63;;;2.60;;
8881;SDS011;4477;48.736;9.176;2023-02-23T11:33:00;6.40;;;2.90;;
8881;SDS011;4477;48.736;9.176;2023-02-23T11:35:34;6.60;;;2.97;;
8881;SDS011;4477;48.736;9.176;2023-02-23T11:38:13;6.10;;;2.90;;
8881;SDS011;4477;48.736;9.176;2023-02-23T11:40:56;6.17;;;2.60;;
8881;SDS011;4477;48.736;9.176;2023-02-23T11:43:25;6.53;;;3.00;;
8881;SDS011;4477;48.736;9.176;2023-02-23T11:45:53;5.90;;;2.60;;
8881;SDS011;4477;48.736;9.176;2023-02-23T11:48:24;6.47;;;2.43;;
8881;SDS011;4477;48.736;9.176;2023-02-23T11:50:53;5.33;;;3.47;;
8881;SDS011;4477;48.736;9.176;2023-02-23T11:53:23;5.63;;;3.20;;
8881;SDS011;4477;48.736;9.176;2023-02-23T11:55:54;10.50;;;3.40;;
8881;SDS011;4477;48.736;9.176;2023-02-23T11:58:22;5.00;;;2.87;;
8881;SDS011;4477;48.736;9.176;2023-02-23T12:00:58;5.63;;;3.03;;
8881;SDS011;4477;48.736;9.176;2023-02-23T12:03:26;8.27;;;2.53;;
8881;SDS011;4477;48.736;9.176;2023-02-23T12:05:55;4.93;;;2.57;;
8881;SDS011;4477;48.736;9.176;2023-02-23T12:08:26;4.23;;;2.60;;
8881;SDS011;4477;48.736;9.176;2023-02-23T12:10:57;4.83;;;2.50;;
8881;SDS011;4477;48.736;9.176;2023-02-23T12:13:26;7.50;;;2.97;;
8881;SDS011;4477;48.736;9.176;2023-02-23T12:15:59;6.77;;;2.30;;
8881;SDS011;4477;48.736;9.176;2023-02-23T12:21:16;10.87;;;4.87;;
8881;SDS011;4477;48.736;9.176;2023-02-23T12:23:45;9.20;;;5.87;;
8881;SDS011;4477;48.736;9.176;2023-02-23T12:26:13;14.70;;;6.90;;
8881;SDS011;4477;48.736;9.176;2023-02-23T12:28:44;12.47;;;6.53;;
8881;SDS011;4477;48.736;9.176;2023-02-23T12:31:18;11.00;;;7.13;;
8881;SDS011;4477;48.736;9.176;2023-02-23T12:33:49;9.47;;;6.43;;
8881;SDS011;4477;48.736;9.176;2023-02-23T12:36:21;12.60;;;7.70;;
8881;SDS011;4477;48.736;9.176;2023-02-23T12:38:50;10.80;;;7.00;;
8881;SDS011;4477;48.736;9.176;2023-02-23T12:41:24;12.27;;;7.40;;
8881;SDS011;4477;48.736;9.176;2023-02-23T12:43:53;13.83;;;6.90;;
8881;SDS011;4477;48.736;9.176;2023-02-23T12:46:23;11.37;;;6.80;;
8881;SDS011;4477;48.736;9.176;2023-02-23T12:48:55;15.93;;;7.80;;
8881;SDS011;4477;48.736;9.176;2023-02-23T12:51:28;12.70;;;7.53;;
8881;SDS011;4477;48.736;9.176;2023-02-23T12:53:57;9.60;;;7.50;;
8881;SDS011;4477;48.736;9.176;2023-02-23T12:56:28;10.87;;;7.43;;
8881;SDS011;4477;48.736;9.176;2023-02-23T12:58:58;18.77;;;8.03;;
8881;SDS011;4477;48.736;9.176;2023-02-23T13:01:32;15.60;;;8.37;;
8881;SDS011;4477;48.736;9.176;2023-02-23T13:04:09;12.57;;;6.77;;
8881;SDS011;4477;48.736;9.176;2023-02-23T13:06:38;11.43;;;7.07;;
8881;SDS011;4477;48.736;9.176;2023-02-23T13:09:12;11.77;;;6.97;;
8881;SDS011;4477;48.736;9.176;2023-02-23T13:11:47;11.47;;;7.20;;
8881;SDS011;4477;48.736;9.176;2023-02-23T13:14:19;13.23;;;6.77;;
8881;SDS011;4477;48.736;9.176;2023-02-23T13:16:51;11.13;;;7.17;;
8881;SDS011;4477;48.736;9.176;2023-02-23T13:19:20;11.63;;;6.77;;
8881;SDS011;4477;48.736;9.176;2023-02-23T13:21:50;11.27;;;6.50;;
8881;SDS011;4477;48.736;9.176;2023-02-23T13:24:19;12.57;;;6.40;;
8881;SDS011;4477;48.736;9.176;2023-02-23T13:26:48;10.27;;;6.60;;
8881;SDS011;4477;48.736;9.176;2023-02-23T13:29:24;9.03;;;5.53;;
8881;SDS011;4477;48.736;9.176;2023-02-23T13:31:53;8.60;;;5.37;;
8881;SDS011;4477;48.736;9.176;2023-02-23T13:34:23;11.80;;;5.83;;
8881;SDS011;4477;48.736;9.176;2023-02-23T13:36:52;8.63;;;5.33;;
8881;SDS011;4477;48.736;9.176;2023-02-23T13:39:33;9.67;;;5.27;;
8881;SDS011;4477;48.736;9.176;2023-02-23T13:42:13;10.17;;;5.70;;
8881;SDS011;4477;48.736;9.176;2023-02-23T13:44:45;10.37;;;5.63;;
8881;SDS011;4477;48.736;9.176;2023-02-23T13:47:16;10.70;;;4.93;;
8881;SDS011;4477;48.736;9.176;2023-02-23T13:49:48;8.60;;;5.17;;
8881;SDS011;4477;48.736;9.176;2023-02-23T13:52:25;8.43;;;5.13;;
8881;SDS011;4477;48.736;9.176;2023-02-23T13:54:54;8.73;;;5.00;;
8881;SDS011;4477;48.736;9.176;2023-02-23T13:57:23;11.67;;;5.13;;
8881;SDS011;4477;48.736;9.176;2023-02-23T13:59:51;7.57;;;4.90;;
8881;SDS011;4477;48.736;9.176;2023-02-23T14:02:21;8.87;;;5.60;;
8881;SDS011;4477;48.736;9.176;2023-02-23T14:04:50;10.77;;;5.60;;
8881;SDS011;4477;48.736;9.176;2023-02-23T14:07:21;9.50;;;5.63;;
8881;SDS011;4477;48.736;9.176;2023-02-23T14:09:51;11.33;;;6.83;;
8881;SDS011;4477;48.736;9.176;2023-02-23T14:12:22;12.37;;;5.90;;
8881;SDS011;4477;48.736;9.176;2023-02-23T14:14:50;9.40;;;5.67;;
8881;SDS011;4477;48.736;9.176;2023-02-23T14:17:40;7.53;;;6.37;;
8881;SDS011;4477;48.736;9.176;2023-02-23T14:20:19;11.37;;;8.20;;
8881;SDS011;4477;48.736;9.176;2023-02-23T14:25:43;11.50;;;9.03;;
8881;SDS011;4477;48.736;9.176;2023-02-23T14:28:21;13.30;;;9.13;;
8881;SDS011;4477;48.736;9.176;2023-02-23T14:30:49;14.20;;;9.30;;
8881;SDS011;4477;48.736;9.176;2023-02-23T14:33:35;15.10;;;9.70;;
8881;SDS011;4477;48.736;9.176;2023-02-23T14:38:46;15.40;;;10.17;;
8881;SDS011;4477;48.736;9.176;2023-02-23T14:41:19;14.57;;;9.57;;
8881;SDS011;4477;48.736;9.176;2023-02-23T14:43:47;14.30;;;9.73;;
8881;SDS011;4477;48.736;9.176;2023-02-23T14:46:17;14.03;;;9.30;;
8881;SDS011;4477;48.736;9.176;2023-02-23T14:48:55;12.73;;;10.10;;
8881;SDS011;4477;48.736;9.176;2023-02-23T14:51:24;13.47;;;9.93;;
8881;SDS011;4477;48.736;9.176;2023-02-23T14:53:57;12.77;;;10.00;;
8881;SDS011;4477;48.736;9.176;2023-02-23T14:56:24;13.67;;;9.10;;
8881;SDS011;4477;48.736;9.176;2023-02-23T14:58:52;12.37;;;9.07;;
8881;SDS011;4477;48.736;9.176;2023-02-23T15:04:06;14.30;;;8.43;;
8881;SDS011;4477;48.736;9.176;2023-02-23T15:06:34;15.20;;;9.40;;
8881;SDS011;4477;48.736;9.176;2023-02-23T15:09:02;12.87;;;7.87;;
8881;SDS011;4477;48.736;9.176;2023-02-23T15:11:29;9.33;;;6.30;;
8881;SDS011;4477;48.736;9.176;2023-02-23T15:13:57;7.27;;;4.93;;
8881;SDS011;4477;48.736;9.176;2023-02-23T15:16:26;7.90;;;4.87;;
8881;SDS011;4477;48.736;9.176;2023-02-23T15:18:54;9.03;;;4.23;;
8881;SDS011;4477;48.736;9.176;2023-02-23T15:21:25;5.20;;;3.67;;
8881;SDS011;4477;48.736;9.176;2023-02-23T15:23:57;10.03;;;4.23;;
8881;SDS011;4477;48.736;9.176;2023-02-23T15:26:25;7.03;;;4.00;;
8881;SDS011;4477;48.736;9.176;2023-02-23T15:29:01;8.87;;;4.10;;
8881;SDS011;4477;48.736;9.176;2023-02-23T15:31:29;7.17;;;3.50;;
8881;SDS011;4477;48.736;9.176;2023-02-23T15:33:56;6.23;;;4.00;;
8881;SDS011;4477;48.736;9.176;2023-02-23T15:36:25;8.10;;;4.73;;